createdAt,value
2018-06-23T00:01:00.129Z,1.27
2018-06-23T00:03:29.369Z,1.30
2018-06-23T00:05:58.641Z,1.40
2018-06-23T00:08:27.939Z,1.37
2018-06-23T00:10:57.229Z,1.33
2018-06-23T00:13:26.555Z,1.20
2018-06-23T00:15:55.799Z,1.77
2018-06-23T00:18:25.087Z,1.40
2018-06-23T00:20:54.325Z,1.10
2018-06-23T00:23:23.573Z,1.10
2018-06-23T00:25:58.381Z,1.27
2018-06-23T00:28:27.873Z,1.30
2018-06-23T00:30:57.117Z,1.20
2018-06-23T00:33:26.487Z,1.40
2018-06-23T00:35:55.435Z,1.43
2018-06-23T00:38:24.663Z,1.57
2018-06-23T00:40:53.941Z,1.30
2018-06-23T00:43:22.870Z,1.10
2018-06-23T00:45:51.646Z,1.60
2018-06-23T00:48:20.869Z,1.30
2018-06-23T00:50:50.337Z,1.40
2018-06-23T00:53:19.633Z,1.67
2018-06-23T00:55:48.902Z,1.30
2018-06-23T00:58:18.158Z,1.40
2018-06-23T01:00:47.606Z,1.37
2018-06-23T01:03:16.890Z,1.40
2018-06-23T01:05:46.202Z,1.47
2018-06-23T01:08:15.459Z,1.20
2018-06-23T01:10:44.706Z,1.40
2018-06-23T01:13:13.995Z,1.37
2018-06-23T01:15:43.430Z,1.23
2018-06-23T01:18:12.747Z,1.73
2018-06-23T01:20:42.234Z,1.43
2018-06-23T01:23:11.478Z,1.50
2018-06-23T01:25:40.938Z,1.40
2018-06-23T01:28:10.174Z,1.57
2018-06-23T01:30:39.483Z,1.30
2018-06-23T01:33:08.753Z,1.33
2018-06-23T01:35:38.070Z,1.60
2018-06-23T01:38:07.323Z,1.57
2018-06-23T01:40:36.623Z,1.50
2018-06-23T01:43:05.902Z,1.23
2018-06-23T01:45:35.339Z,1.50
2018-06-23T01:48:04.615Z,1.37
2018-06-23T01:50:33.894Z,1.33
2018-06-23T01:53:03.148Z,1.67
2018-06-23T01:55:32.398Z,1.20
2018-06-23T01:58:01.631Z,1.30
2018-06-23T02:00:30.902Z,1.63
2018-06-23T02:02:59.848Z,1.60
2018-06-23T02:05:29.055Z,1.50
2018-06-23T02:07:58.409Z,1.97
2018-06-23T02:10:27.643Z,1.93
2018-06-23T02:12:56.949Z,1.60
2018-06-23T02:15:31.609Z,1.60
2018-06-23T02:18:06.218Z,1.80
2018-06-23T02:20:40.819Z,1.40
2018-06-23T02:23:15.465Z,1.60
2018-06-23T02:25:49.963Z,1.50
2018-06-23T02:28:24.506Z,1.40
2018-06-23T02:30:59.010Z,1.73
2018-06-23T02:33:33.491Z,1.63
2018-06-23T02:36:02.776Z,1.20
2018-06-23T02:38:32.022Z,1.67
2018-06-23T02:41:01.277Z,1.63
2018-06-23T02:43:30.611Z,1.40
2018-06-23T02:45:59.854Z,1.70
2018-06-23T02:48:29.127Z,1.50
2018-06-23T02:50:58.565Z,1.47
2018-06-23T02:53:27.807Z,1.33
2018-06-23T02:55:57.109Z,1.23
2018-06-23T02:58:26.469Z,1.40
2018-06-23T03:00:55.745Z,1.67
2018-06-23T03:03:24.987Z,1.30
2018-06-23T03:05:54.222Z,1.73
2018-06-23T03:08:23.475Z,1.73
2018-06-23T03:10:52.717Z,1.60
2018-06-23T03:13:22.023Z,1.60
2018-06-23T03:15:51.285Z,1.50
2018-06-23T03:18:20.538Z,1.70
2018-06-23T03:20:49.877Z,1.50
2018-06-23T03:23:19.121Z,1.70
2018-06-23T03:25:48.382Z,1.50
2018-06-23T03:28:17.692Z,1.60
2018-06-23T03:30:47.093Z,1.53
2018-06-23T03:33:16.415Z,1.47
2018-06-23T03:35:45.771Z,1.83
2018-06-23T03:38:15.562Z,1.50
2018-06-23T03:40:44.805Z,1.60
2018-06-23T03:43:14.129Z,1.63
2018-06-23T03:45:45.068Z,1.50
2018-06-23T03:48:14.286Z,1.50
2018-06-23T03:50:43.542Z,1.50
2018-06-23T03:53:12.882Z,1.90
2018-06-23T03:55:42.121Z,1.83
2018-06-23T03:58:11.635Z,1.70
2018-06-23T04:00:46.177Z,1.70
2018-06-23T04:03:15.429Z,1.80
2018-06-23T04:05:45.574Z,1.77
2018-06-23T04:08:14.811Z,1.80
2018-06-23T04:10:44.230Z,1.87
2018-06-23T04:13:13.478Z,1.40
2018-06-23T04:15:42.738Z,1.67
2018-06-23T04:18:12.134Z,2.10
2018-06-23T04:20:41.369Z,1.70
2018-06-23T04:23:10.653Z,1.60
2018-06-23T04:25:39.945Z,1.50
2018-06-23T04:28:09.282Z,1.63
2018-06-23T04:30:38.534Z,1.70
2018-06-23T04:33:07.783Z,2.10
2018-06-23T04:35:37.041Z,2.00
2018-06-23T04:38:06.345Z,1.80
2018-06-23T04:40:35.642Z,1.70
2018-06-23T04:43:04.930Z,1.90
2018-06-23T04:45:34.067Z,1.93
2018-06-23T04:48:03.398Z,1.70
2018-06-23T04:50:32.662Z,1.63
2018-06-23T04:53:01.894Z,1.60
2018-06-23T04:55:31.199Z,1.57
2018-06-23T04:58:00.732Z,1.60
2018-06-23T05:00:30.023Z,1.60
2018-06-23T05:02:59.466Z,2.00
2018-06-23T05:05:28.720Z,1.60
2018-06-23T05:07:57.989Z,1.83
2018-06-23T05:10:27.289Z,1.80
2018-06-23T05:12:56.622Z,1.47
2018-06-23T05:15:26.074Z,2.00
2018-06-23T05:17:55.365Z,2.13
2018-06-23T05:20:24.604Z,1.53
2018-06-23T05:22:53.899Z,1.97
2018-06-23T05:25:23.187Z,2.03
2018-06-23T05:27:52.493Z,2.07
2018-06-23T05:30:21.800Z,2.03
2018-06-23T05:32:51.099Z,2.30
2018-06-23T05:35:20.443Z,1.67
2018-06-23T05:37:49.773Z,1.90
2018-06-23T05:40:19.611Z,2.00
2018-06-23T05:42:48.892Z,1.70
2018-06-23T05:45:18.347Z,2.07
2018-06-23T05:47:47.651Z,1.70
2018-06-23T05:50:16.912Z,2.43
2018-06-23T05:52:46.589Z,3.00
2018-06-23T05:55:15.867Z,2.93
2018-06-23T05:57:45.854Z,2.70
2018-06-23T06:00:15.439Z,4.07
2018-06-23T06:02:44.787Z,3.53
2018-06-23T06:05:15.021Z,4.57
2018-06-23T06:07:45.039Z,3.20
2018-06-23T06:10:14.757Z,3.83
2018-06-23T06:12:44.010Z,4.13
2018-06-23T06:15:13.515Z,5.03
2018-06-23T06:17:42.766Z,4.90
2018-06-23T06:20:14.502Z,5.30
2018-06-23T06:22:46.735Z,4.70
2018-06-23T06:25:18.972Z,5.07
2018-06-23T06:27:53.823Z,6.93
2018-06-23T06:30:23.131Z,6.53
2018-06-23T06:32:52.405Z,6.00
2018-06-23T06:35:22.279Z,6.83
2018-06-23T06:37:51.633Z,6.27
2018-06-23T06:40:20.911Z,5.80
2018-06-23T06:42:50.241Z,7.97
2018-06-23T06:45:19.549Z,7.07
2018-06-23T06:47:48.840Z,6.70
2018-06-23T06:50:18.146Z,6.43
2018-06-23T06:52:47.446Z,7.10
2018-06-23T06:55:16.771Z,6.53
2018-06-23T06:57:46.082Z,7.83
2018-06-23T07:00:15.383Z,6.67
2018-06-23T07:02:44.651Z,7.17
2018-06-23T07:05:13.908Z,7.20
2018-06-23T07:07:43.237Z,7.50
2018-06-23T07:10:12.530Z,7.77
2018-06-23T07:12:41.852Z,6.83
2018-06-23T07:15:13.711Z,6.10
2018-06-23T07:17:43.049Z,6.70
2018-06-23T07:20:13.261Z,7.10
2018-06-23T07:22:43.391Z,6.53
2018-06-23T07:25:12.707Z,7.33
2018-06-23T07:27:42.084Z,7.60
2018-06-23T07:30:11.368Z,7.33
2018-06-23T07:32:40.651Z,7.50
2018-06-23T07:35:10.081Z,6.97
2018-06-23T07:37:39.302Z,7.30
2018-06-23T07:40:08.771Z,7.47
2018-06-23T07:42:38.009Z,7.37
2018-06-23T07:45:07.322Z,7.23
2018-06-23T07:47:36.602Z,7.00
2018-06-23T07:50:06.001Z,8.40
2018-06-23T07:52:35.281Z,7.40
2018-06-23T07:55:04.586Z,7.90
2018-06-23T07:57:33.903Z,6.93
2018-06-23T08:00:03.298Z,7.37
2018-06-23T08:02:32.831Z,7.90
2018-06-23T08:05:02.143Z,7.50
2018-06-23T08:07:31.452Z,7.70
2018-06-23T08:10:00.698Z,8.00
2018-06-23T08:12:29.969Z,7.63
2018-06-23T08:14:58.881Z,8.30
2018-06-23T08:17:29.223Z,7.47
2018-06-23T08:19:58.509Z,8.87
2018-06-23T08:22:27.858Z,7.10
2018-06-23T08:24:57.141Z,7.43
2018-06-23T08:27:26.394Z,7.40
2018-06-23T08:29:55.650Z,7.77
2018-06-23T08:32:25.013Z,7.70
2018-06-23T08:34:54.314Z,6.93
2018-06-23T08:37:23.834Z,7.17
2018-06-23T08:39:53.238Z,6.63
2018-06-23T08:42:22.534Z,6.83
2018-06-23T08:44:51.794Z,6.83
2018-06-23T08:47:21.102Z,7.40
2018-06-23T08:49:50.744Z,6.63
2018-06-23T08:52:21.497Z,7.03
2018-06-23T08:54:51.223Z,6.77
2018-06-23T08:57:20.497Z,6.07
2018-06-23T08:59:49.738Z,6.00
2018-06-23T09:02:19.126Z,6.53
2018-06-23T09:04:48.403Z,6.00
2018-06-23T09:07:17.686Z,6.20
2018-06-23T09:09:46.985Z,6.20
2018-06-23T09:12:16.302Z,5.97
2018-06-23T09:14:45.680Z,5.97
2018-06-23T09:17:14.915Z,5.80
2018-06-23T09:19:44.208Z,6.27
2018-06-23T09:22:13.450Z,5.90
2018-06-23T09:24:42.725Z,6.10
2018-06-23T09:27:12.002Z,5.47
2018-06-23T09:29:41.458Z,5.70
2018-06-23T09:32:10.771Z,5.77
2018-06-23T09:34:40.107Z,5.80
2018-06-23T09:37:09.346Z,5.43
2018-06-23T09:39:38.606Z,5.60
2018-06-23T09:42:07.870Z,5.33
2018-06-23T09:44:37.263Z,5.57
2018-06-23T09:47:06.518Z,5.03
2018-06-23T09:49:35.821Z,5.40
2018-06-23T09:52:05.126Z,5.53
2018-06-23T09:54:34.551Z,5.23
2018-06-23T09:57:06.890Z,5.20
2018-06-23T09:59:36.594Z,5.60
2018-06-23T10:02:05.902Z,4.87
2018-06-23T10:04:35.240Z,5.20
2018-06-23T10:07:04.811Z,5.00
2018-06-23T10:09:33.723Z,4.50
2018-06-23T10:12:02.891Z,4.67
2018-06-23T10:14:32.158Z,4.73
2018-06-23T10:17:01.428Z,4.83
2018-06-23T10:19:30.729Z,5.63
2018-06-23T10:21:59.998Z,5.97
2018-06-23T10:24:29.358Z,8.90
2018-06-23T10:26:58.565Z,7.67
2018-06-23T10:29:27.823Z,8.27
2018-06-23T10:31:57.113Z,8.80
2018-06-23T10:34:26.382Z,8.67
2018-06-23T10:36:55.893Z,9.33
2018-06-23T10:39:25.139Z,9.77
2018-06-23T10:41:54.386Z,9.83
2018-06-23T10:44:23.818Z,10.07
2018-06-23T10:46:53.092Z,8.93
2018-06-23T10:49:22.362Z,10.27
2018-06-23T10:51:51.614Z,10.13
2018-06-23T10:54:20.874Z,9.93
2018-06-23T10:56:50.173Z,9.70
2018-06-23T10:59:19.439Z,10.20
2018-06-23T11:01:48.723Z,10.70
2018-06-23T11:04:17.978Z,10.83
2018-06-23T11:06:47.257Z,9.43
2018-06-23T11:09:16.565Z,9.53
2018-06-23T11:11:45.809Z,9.53
2018-06-23T11:14:15.088Z,7.93
2018-06-23T11:16:44.363Z,6.87
2018-06-23T11:19:13.629Z,6.30
2018-06-23T11:21:43.050Z,6.20
2018-06-23T11:24:12.446Z,6.03
2018-06-23T11:26:41.630Z,6.00
2018-06-23T11:29:10.910Z,5.40
2018-06-23T11:31:40.162Z,4.40
2018-06-23T11:34:09.505Z,4.20
2018-06-23T11:36:38.767Z,4.00
2018-06-23T11:39:09.737Z,5.17
2018-06-23T11:41:39.570Z,5.30
2018-06-23T11:44:08.851Z,6.17
2018-06-23T11:46:39.404Z,5.87
2018-06-23T11:49:08.594Z,6.57
2018-06-23T11:51:37.849Z,7.00
2018-06-23T11:54:07.119Z,6.27
2018-06-23T11:56:36.360Z,6.60
2018-06-23T11:59:05.650Z,5.40
2018-06-23T12:01:35.179Z,5.10
2018-06-23T12:04:04.510Z,5.20
2018-06-23T12:06:33.785Z,5.13
2018-06-23T12:09:03.423Z,4.73
2018-06-23T12:11:32.700Z,4.60
2018-06-23T12:14:01.986Z,4.30
2018-06-23T12:16:31.326Z,4.17
2018-06-23T12:19:00.562Z,4.10
2018-06-23T12:21:29.826Z,3.77
2018-06-23T12:23:59.082Z,3.27
2018-06-23T12:26:28.335Z,3.97
2018-06-23T12:28:57.607Z,4.27
2018-06-23T12:31:27.490Z,3.20
2018-06-23T12:33:57.229Z,3.10
2018-06-23T12:36:26.644Z,3.20
2018-06-23T12:38:56.047Z,3.10
2018-06-23T12:41:25.328Z,2.43
2018-06-23T12:43:54.534Z,2.63
2018-06-23T12:46:24.339Z,2.40
2018-06-23T12:48:53.601Z,1.80
2018-06-23T12:51:22.540Z,2.13
2018-06-23T12:53:51.759Z,2.47
2018-06-23T12:56:21.019Z,1.97
2018-06-23T12:58:50.282Z,2.40
2018-06-23T13:01:19.547Z,2.30
2018-06-23T13:03:48.809Z,2.30
2018-06-23T13:06:18.070Z,2.03
2018-06-23T13:08:47.543Z,2.10
2018-06-23T13:11:16.854Z,1.83
2018-06-23T13:13:46.101Z,1.80
2018-06-23T13:16:15.438Z,2.07
2018-06-23T13:18:44.701Z,1.80
2018-06-23T13:21:14.000Z,1.60
2018-06-23T13:23:43.278Z,1.57
2018-06-23T13:26:12.528Z,1.83
2018-06-23T13:28:41.811Z,1.80
2018-06-23T13:31:11.110Z,1.43
2018-06-23T13:33:40.371Z,1.80
2018-06-23T13:36:09.614Z,1.70
2018-06-23T13:38:38.910Z,1.50
2018-06-23T13:41:08.243Z,1.27
2018-06-23T13:43:37.729Z,1.77
2018-06-23T13:46:07.007Z,1.60
2018-06-23T13:48:36.326Z,1.10
2018-06-23T13:51:05.968Z,1.60
2018-06-23T13:53:35.191Z,1.50
2018-06-23T13:56:04.660Z,1.50
2018-06-23T13:58:33.891Z,1.50
2018-06-23T14:01:03.191Z,1.20
2018-06-23T14:03:32.485Z,1.70
2018-06-23T14:06:01.751Z,1.47
2018-06-23T14:08:30.986Z,1.27
2018-06-23T14:11:00.292Z,1.60
2018-06-23T14:13:29.566Z,1.57
2018-06-23T14:15:58.830Z,1.50
2018-06-23T14:18:28.288Z,1.73
2018-06-23T14:20:57.537Z,1.30
2018-06-23T14:23:26.858Z,1.40
2018-06-23T14:25:57.115Z,2.03
2018-06-23T14:28:26.403Z,1.60
2018-06-23T14:30:55.698Z,1.60
2018-06-23T14:33:25.038Z,1.40
2018-06-23T14:35:54.298Z,1.30
2018-06-23T14:38:24.157Z,1.70
2018-06-23T14:40:53.441Z,1.43
2018-06-23T14:43:22.677Z,1.57
2018-06-23T14:45:52.006Z,1.87
2018-06-23T14:48:21.255Z,1.53
2018-06-23T14:50:50.501Z,1.60
2018-06-23T14:53:19.766Z,1.53
2018-06-23T14:55:49.039Z,1.70
2018-06-23T14:58:18.273Z,1.20
2018-06-23T15:00:47.514Z,1.53
2018-06-23T15:03:16.960Z,1.60
2018-06-23T15:05:46.233Z,1.50
2018-06-23T15:08:26.831Z,1.50
2018-06-23T15:11:07.209Z,1.50
2018-06-23T15:13:36.512Z,1.30
2018-06-23T15:16:05.834Z,1.53
2018-06-23T15:18:35.094Z,1.70
2018-06-23T15:21:04.221Z,1.30
2018-06-23T15:23:33.489Z,1.40
2018-06-23T15:26:02.798Z,1.37
2018-06-23T15:28:32.138Z,1.43
2018-06-23T15:31:01.476Z,1.27
2018-06-23T15:33:30.723Z,1.70
2018-06-23T15:36:00.041Z,1.43
2018-06-23T15:38:29.313Z,1.80
2018-06-23T15:40:58.574Z,1.43
2018-06-23T15:43:27.826Z,1.67
2018-06-23T15:45:57.191Z,1.53
2018-06-23T15:48:26.466Z,1.30
2018-06-23T15:50:55.744Z,1.73
2018-06-23T15:53:25.011Z,1.90
2018-06-23T15:55:54.250Z,1.50
2018-06-23T15:58:23.514Z,1.80
2018-06-23T16:00:52.774Z,1.73
2018-06-23T16:03:22.248Z,2.00
2018-06-23T16:05:51.656Z,1.83
2018-06-23T16:08:20.930Z,1.60
2018-06-23T16:10:50.272Z,1.53
2018-06-23T16:13:19.510Z,1.90
2018-06-23T16:15:48.784Z,1.87
2018-06-23T16:18:18.014Z,2.27
2018-06-23T16:20:47.402Z,1.57
2018-06-23T16:23:16.729Z,1.97
2018-06-23T16:25:46.023Z,1.90
2018-06-23T16:28:15.259Z,2.20
2018-06-23T16:30:44.530Z,1.80
2018-06-23T16:33:13.814Z,1.87
2018-06-23T16:35:43.146Z,1.80
2018-06-23T16:38:12.434Z,1.93
2018-06-23T16:40:41.775Z,2.33
2018-06-23T16:43:11.100Z,2.40
2018-06-23T16:45:40.407Z,2.20
2018-06-23T16:48:10.311Z,2.70
2018-06-23T16:50:39.600Z,2.73
2018-06-23T16:53:08.874Z,2.17
2018-06-23T16:55:38.194Z,2.33
2018-06-23T16:58:07.469Z,2.40
2018-06-23T17:00:37.057Z,2.20
2018-06-23T17:03:06.358Z,2.37
2018-06-23T17:05:36.043Z,2.10
2018-06-23T17:08:35.621Z,2.60
2018-06-23T17:11:04.753Z,2.67
2018-06-23T17:13:33.990Z,2.87
2018-06-23T17:16:03.249Z,2.13
2018-06-23T17:18:32.549Z,2.70
2018-06-23T17:21:01.827Z,2.23
2018-06-23T17:23:31.094Z,2.47
2018-06-23T17:26:00.596Z,2.70
2018-06-23T17:28:30.769Z,2.53
2018-06-23T17:31:00.030Z,2.63
2018-06-23T17:33:29.292Z,2.87
2018-06-23T17:35:58.420Z,2.40
2018-06-23T17:38:27.657Z,2.37
2018-06-23T17:40:56.911Z,2.50
2018-06-23T17:43:26.163Z,2.00
2018-06-23T17:45:55.206Z,2.23
2018-06-23T17:48:24.485Z,2.50
2018-06-23T17:50:53.855Z,2.37
2018-06-23T17:53:23.222Z,2.60
2018-06-23T17:55:52.462Z,2.77
2018-06-23T17:58:22.219Z,2.63
2018-06-23T18:00:51.494Z,3.00
2018-06-23T18:03:20.470Z,3.27
2018-06-23T18:05:49.598Z,3.30
2018-06-23T18:08:18.924Z,3.10
2018-06-23T18:10:48.191Z,3.23
2018-06-23T18:13:17.419Z,3.33
2018-06-23T18:15:46.686Z,3.10
2018-06-23T18:18:16.014Z,3.20
2018-06-23T18:20:45.487Z,3.57
2018-06-23T18:23:14.783Z,2.87
2018-06-23T18:25:44.050Z,3.10
2018-06-23T18:28:13.277Z,3.30
2018-06-23T18:30:42.668Z,3.00
2018-06-23T18:33:11.584Z,3.23
2018-06-23T18:35:40.751Z,3.40
2018-06-23T18:38:10.073Z,3.23
2018-06-23T18:40:39.379Z,2.97
2018-06-23T18:43:09.081Z,3.07
2018-06-23T18:45:38.407Z,3.43
2018-06-23T18:48:07.702Z,2.90
2018-06-23T18:50:36.655Z,2.80
2018-06-23T18:53:06.015Z,3.23
2018-06-23T18:55:35.327Z,2.97
2018-06-23T18:58:04.698Z,3.03
2018-06-23T19:00:34.011Z,2.83
2018-06-23T19:03:03.226Z,2.63
2018-06-23T19:05:32.500Z,2.70
2018-06-23T19:08:01.819Z,2.90
2018-06-23T19:10:31.157Z,3.20
2018-06-23T19:13:00.484Z,2.83
2018-06-23T19:15:29.760Z,2.77
2018-06-23T19:17:59.024Z,3.07
2018-06-23T19:20:28.288Z,2.43
2018-06-23T19:22:57.530Z,2.67
2018-06-23T19:25:27.193Z,3.07
2018-06-23T19:27:56.526Z,2.57
2018-06-23T19:30:25.843Z,2.40
2018-06-23T19:32:55.078Z,2.67
2018-06-23T19:35:24.315Z,2.53
2018-06-23T19:37:53.210Z,2.50
2018-06-23T19:40:22.505Z,2.67
2018-06-23T19:42:51.777Z,2.83
2018-06-23T19:45:21.127Z,2.60
2018-06-23T19:47:50.473Z,3.13
2018-06-23T19:50:19.767Z,2.90
2018-06-23T19:52:49.001Z,2.40
2018-06-23T19:55:18.347Z,2.37
2018-06-23T19:57:47.666Z,2.40
2018-06-23T20:00:16.982Z,2.40
2018-06-23T20:03:00.706Z,2.20
2018-06-23T20:05:32.382Z,2.40
2018-06-23T20:08:02.618Z,2.07
2018-06-23T20:10:31.922Z,2.30
2018-06-23T20:13:01.285Z,2.50
2018-06-23T20:15:30.835Z,2.43
2018-06-23T20:18:00.096Z,2.37
2018-06-23T20:20:29.448Z,2.40
2018-06-23T20:22:58.741Z,2.37
2018-06-23T20:25:27.667Z,2.03
2018-06-23T20:27:56.851Z,2.00
2018-06-23T20:30:26.109Z,2.27
2018-06-23T20:32:55.349Z,2.30
2018-06-23T20:35:24.631Z,1.93
2018-06-23T20:37:53.966Z,2.27
2018-06-23T20:40:23.236Z,2.10
2018-06-23T20:42:52.516Z,2.07
2018-06-23T20:45:21.814Z,2.20
2018-06-23T20:47:51.095Z,1.93
2018-06-23T20:50:20.369Z,2.20
2018-06-23T20:52:49.639Z,2.13
2018-06-23T20:55:18.955Z,2.23
2018-06-23T20:57:48.297Z,2.50
2018-06-23T21:00:17.653Z,1.90
2018-06-23T21:02:46.927Z,2.20
2018-06-23T21:05:16.168Z,1.80
2018-06-23T21:07:45.435Z,1.80
2018-06-23T21:10:26.072Z,2.00
2018-06-23T21:12:55.377Z,2.50
2018-06-23T21:15:24.730Z,1.97
2018-06-23T21:17:53.966Z,2.37
2018-06-23T21:20:23.337Z,2.10
2018-06-23T21:22:53.349Z,2.00
2018-06-23T21:25:22.631Z,1.83
2018-06-23T21:27:51.894Z,2.30
2018-06-23T21:30:21.177Z,2.30
2018-06-23T21:35:26.226Z,2.07
2018-06-23T21:37:55.524Z,2.13
2018-06-23T21:40:24.774Z,2.10
2018-06-23T21:42:53.994Z,2.17
2018-06-23T21:45:23.267Z,2.20
2018-06-23T21:47:52.217Z,1.70
2018-06-23T21:50:21.363Z,1.90
2018-06-23T21:52:50.662Z,1.93
2018-06-23T21:55:19.986Z,2.37
2018-06-23T21:57:50.417Z,2.10
2018-06-23T22:00:39.593Z,2.20
2018-06-23T22:03:10.474Z,1.90
2018-06-23T22:05:40.015Z,2.47
2018-06-23T22:08:09.874Z,1.97
2018-06-23T22:10:39.266Z,2.13
2018-06-23T22:13:08.767Z,2.30
2018-06-23T22:15:38.114Z,2.43
2018-06-23T22:18:07.464Z,2.10
2018-06-23T22:20:36.703Z,2.13
2018-06-23T22:23:05.962Z,2.10
2018-06-23T22:25:35.422Z,2.33
2018-06-23T22:28:04.349Z,2.50
2018-06-23T22:30:33.533Z,2.60
2018-06-23T22:33:02.885Z,1.90
2018-06-23T22:35:32.231Z,2.00
2018-06-23T22:38:01.527Z,2.27
2018-06-23T22:40:30.766Z,2.50
2018-06-23T22:43:00.051Z,1.93
2018-06-23T22:45:29.399Z,2.20
2018-06-23T22:47:58.685Z,2.50
2018-06-23T22:50:27.961Z,2.00
2018-06-23T22:52:57.205Z,2.17
2018-06-23T22:55:26.457Z,2.23
2018-06-23T22:57:55.794Z,2.40
2018-06-23T23:00:25.128Z,2.40
2018-06-23T23:02:54.810Z,2.20
2018-06-23T23:05:24.099Z,2.47
2018-06-23T23:07:53.419Z,2.70
2018-06-23T23:10:22.693Z,2.60
2018-06-23T23:12:52.046Z,2.50
2018-06-23T23:15:21.230Z,2.90
2018-06-23T23:17:50.533Z,2.37
2018-06-23T23:20:19.843Z,2.47
2018-06-23T23:22:49.109Z,1.93
2018-06-23T23:25:18.389Z,1.90
2018-06-23T23:27:47.662Z,2.27
2018-06-23T23:30:17.022Z,2.47
2018-06-23T23:32:46.304Z,2.37
2018-06-23T23:35:15.617Z,2.50
2018-06-23T23:40:28.509Z,2.40
2018-06-23T23:42:57.810Z,2.30
2018-06-23T23:45:27.090Z,2.73
2018-06-23T23:47:56.348Z,2.50
2018-06-23T23:50:25.590Z,2.40
2018-06-23T23:52:54.858Z,2.40
2018-06-23T23:55:24.135Z,2.57
2018-06-23T23:57:53.637Z,2.27
